Aviation Digital Data Service (ADDS)

Output produced by METARs form (1557 UTC 12 December 2017)
found at http://www.aviationweather.gov/adds/metars/
 
KHEZ 121556Z AUTO 36009G15KT 10SM CLR 12/00 A3025 RMK AO2 SLP248 T01170000
KHEZ 121456Z AUTO 36012KT 10SM CLR 11/M01 A3024 RMK AO2 SLP244 T01061006 51025
KHEZ 121356Z AUTO 36007KT 10SM CLR 09/M01 A3022 RMK AO2 SLP236 T00891006
KHEZ 121256Z AUTO 35004KT 10SM CLR 08/M01 A3020 RMK AO2 SLP230 T00781011
KHEZ 121156Z AUTO 34004KT 10SM CLR 08/00 A3017 RMK AO2 SLP219 T00830000 10122 20067 53024
KHEZ 121056Z AUTO 34004KT 10SM CLR 07/01 A3013 RMK AO2 SLP207 T00720011
KHEZ 120956Z AUTO 33003KT 7SM CLR 10/02 A3011 RMK AO2 SLP200 T01000022
KHEZ 120856Z AUTO 29005KT 10SM CLR 11/03 A3010 RMK AO2 SLP194 T01060028 53008
KHEZ 120756Z AUTO 26007KT 10SM CLR 11/04 A3008 RMK AO2 SLP188 T01060044
KHEZ 120656Z AUTO 24006KT 10SM CLR 11/05 A3006 RMK AO2 SLP183 T01110050
KHEZ 120556Z AUTO 21005KT 10SM CLR 12/06 A3007 RMK AO2 SLP186 T01220056 10144 20122 58009
KHEZ 120456Z AUTO 22005KT 10SM CLR 13/05 A3009 RMK AO2 SLP193 T01280050 402000011
KHEZ 120356Z AUTO 22006KT 10SM CLR 13/04 A3010 RMK AO2 SLP195 T01330044
KHEZ 120256Z AUTO 22007KT 10SM CLR 14/05 A3010 RMK AO2 SLP197 T01390050 50002
KHEZ 120156Z AUTO 21005KT 10SM CLR 13/04 A3011 RMK AO2 SLP199 T01280044
KHEZ 120056Z AUTO 21004KT 10SM CLR 13/04 A3011 RMK AO2 SLP200 T01330039
KHEZ 112356Z AUTO 19006KT 10SM CLR 14/04 A3010 RMK AO2 SLP195 T01440039 10200 20144 56008
KHEZ 112256Z AUTO 21006KT 10SM CLR 17/04 A3010 RMK AO2 SLP197 T01720039
KHEZ 112156Z AUTO 24007KT 10SM CLR 19/03 A3011 RMK AO2 SLP199 T01940033
KHEZ 112056Z AUTO 23006KT 10SM CLR 20/02 A3012 RMK AO2 SLP204 T02000017 56028
KHEZ 111956Z AUTO 25008KT 10SM CLR 19/01 A3014 RMK AO2 SLP209 T01940011
KHEZ 111856Z AUTO 23007KT 10SM CLR 18/02 A3016 RMK AO2 SLP218 T01830017
KHEZ 111756Z AUTO 26005KT 10SM CLR 16/02 A3021 RMK AO2 SLP233 T01610022 10161 20011 58022
KHEZ 111656Z AUTO 24005KT 10SM CLR 14/02 A3025 RMK AO2 SLP247 T01440022
KHEZ 111556Z AUTO 25005KT 10SM CLR 12/03 A3027 RMK AO2 SLP256 T01170028
KHEZ 111456Z AUTO VRB03KT 10SM CLR 09/02 A3027 RMK AO2 SLP256 T00940022 58000
KHEZ 111356Z AUTO 20003KT 10SM CLR 06/02 A3027 RMK AO2 SLP256 T00560017
KHEZ 111256Z AUTO 18004KT 10SM CLR 02/00 A3028 RMK AO2 SLP258 T00170000 FZRANO
KHEZ 111156Z AUTO 18004KT 10SM CLR 04/01 A3027 RMK AO2 SLP256 T00440006 10061 20011 55003
KHEZ 111056Z AUTO 21006KT 10SM CLR 06/01 A3027 RMK AO2 SLP254 T00560011
KHEZ 110956Z AUTO 22005KT 10SM CLR 04/01 A3028 RMK AO2 SLP257 T00440006
KHEZ 110856Z AUTO 21003KT 10SM CLR 03/00 A3028 RMK AO2 SLP259 T00330000 58009
KHEZ 110756Z AUTO 20004KT 10SM CLR 02/M01 A3029 RMK AO2 SLP262 T00171006 FZRANO
KHEZ 110656Z AUTO 22004KT 10SM CLR 04/00 A3030 RMK AO2 SLP265 T00440000
KHEZ 110556Z AUTO 21004KT 10SM CLR 03/M01 A3031 RMK AO2 SLP268 T00281006 10072 20017 58004
KHEZ 110456Z AUTO 20003KT 10SM CLR 02/00 A3032 RMK AO2 SLP273 T00220000 401441033 FZRANO
KHEZ 110356Z AUTO 20003KT 10SM CLR 02/M01 A3033 RMK AO2 SLP275 T00221006 FZRANO
KHEZ 110256Z AUTO 20004KT 10SM CLR 03/00 A3032 RMK AO2 SLP273 T00280000 58001
KHEZ 110156Z AUTO 17003KT 10SM CLR 03/00 A3032 RMK AO2 SLP273 T00330000
KHEZ 110056Z AUTO 00000KT 10SM CLR 06/00 A3033 RMK AO2 SLP278 T00560000
KHEZ 102356Z AUTO 18004KT 10SM CLR 08/M02 A3032 RMK AO2 SLP275 T00781017 10144 20078 55000
KHEZ 102256Z AUTO 24003KT 10SM CLR 12/M02 A3032 RMK AO2 SLP273 T01171022
KHEZ 102156Z AUTO 24007KT 10SM CLR 13/M03 A3032 RMK AO2 SLP271 T01331028
KHEZ 102056Z AUTO 25005KT 10SM CLR 14/M03 A3032 RMK AO2 SLP274 T01391028 56020
KHEZ 101956Z AUTO 27006KT 10SM CLR 13/M02 A3033 RMK AO2 SLP277 T01331017
KHEZ 101856Z AUTO 00000KT 10SM CLR 12/M04 A3036 RMK AO2 SLP285 T01221039
KHEZ 101756Z AUTO 24005KT 10SM CLR 12/M02 A3038 RMK AO2 SLP294 T01221017 10128 21033 58007
KHEZ 101656Z AUTO 20005KT 10SM CLR 12/M02 A3040 RMK AO2 SLP301 T01171017
KHEZ 101556Z AUTO 24004KT 10SM CLR 09/01 A3042 RMK AO2 SLP307 T00890011
KHEZ 101456Z AUTO 00000KT 10SM CLR 06/01 A3040 RMK AO2 SLP302 T00560011 52013
KHEZ 101356Z AUTO 00000KT 10SM CLR 02/02 A3039 RMK AO2 SLP297 T00220017 FZRANO
KHEZ 101256Z AUTO 00000KT 10SM CLR M03/M04 A3038 RMK AO2 SLP293 T10331039 FZRANO
KHEZ 101156Z AUTO 00000KT 10SM CLR M03/M03 A3036 RMK AO2 SLP289 T10281033 11011 21028 53007 FZRANO
KHEZ 101056Z AUTO 00000KT 10SM CLR M03/M03 A3034 RMK AO2 SLP280 T10281033 FZRANO
KHEZ 100856Z AUTO 00000KT 10SM CLR M02/M03 A3034 RMK AO2 SLP280 T10221033 51014 FZRANO
KHEZ 100756Z AUTO 00000KT 10SM CLR M02/M03 A3033 RMK AO2 SLP275 T10221028 FZRANO
KHEZ 100656Z AUTO 00000KT 10SM CLR M02/M03 A3032 RMK AO2 SLP274 T10171028 FZRANO
KHEZ 100556Z AUTO 00000KT 10SM CLR M01/M02 A3030 RMK AO2 SLP267 T10111022 10061 21011 51012 FZRANO
KHEZ 100456Z AUTO 16003KT 10SM CLR M01/M02 A3030 RMK AO2 SLP266 T10111017 401171056 FZRANO
KHEZ 100356Z AUTO 17004KT 10SM CLR 00/M01 A3028 RMK AO2 SLP260 T00001011 FZRANO
KHEZ 100256Z AUTO 16003KT 10SM CLR 01/00 A3027 RMK AO2 SLP255 T00110000 51021 FZRANO
KHEZ 100156Z AUTO 15003KT 10SM CLR 02/00 A3026 RMK AO2 SLP251 T00220000 FZRANO
KHEZ 100056Z AUTO 00000KT 10SM CLR 04/01 A3024 RMK AO2 SLP245 T00390006
KHEZ 092356Z AUTO 00000KT 10SM CLR 06/00 A3021 RMK AO2 SLP235 T00610000 10117 20061 53016
KHEZ 092256Z AUTO 27003KT 10SM CLR 10/M01 A3017 RMK AO2 SLP223 T01001011
KHEZ 092156Z AUTO 29007KT 10SM CLR 12/M02 A3016 RMK AO2 SLP220 T01171017
KHEZ 091956Z AUTO 28007KT 10SM CLR 11/M01 A3016 RMK AO2 SLP220 T01061006
KHEZ 091856Z AUTO 24011G16KT 10SM CLR 09/M01 A3017 RMK AO2 SLP223 T00891011
KHEZ 091756Z AUTO 25010KT 10SM CLR 07/M02 A3020 RMK AO2 SLP232 T00721017 10072 21056 58004
KHEZ 091656Z AUTO 25008KT 10SM CLR 06/M03 A3022 RMK AO2 SLP238 T00561028